Time;durP1;ratioP1;P1;durP2;ratioP2;P2;SDS_P1;SDS_P2;PMS_P1;PMS_P2;Temp;Humidity;BMP_temperature;BMP_pressure;BME280_temperature;BME280_humidity;BME280_pressure;Samples;Min_cycle;Max_cycle;Signal;HPM_P1;HPM_P2
2023/08/01 00:00:43;;;;;;;8.20;3.15;;;15.80;99.90;;;;;;4958154;29;20202;-85
2023/08/01 00:03:09;;;;;;;7.60;4.47;;;15.70;99.90;;;;;;4956343;29;20306;-85
2023/08/01 00:05:35;;;;;;;7.55;4.10;;;15.70;99.90;;;;;;4924497;29;20218;-85
2023/08/01 00:08:02;;;;;;;7.65;3.65;;;15.70;99.90;;;;;;4955528;28;20187;-85
2023/08/01 00:10:29;;;;;;;4.72;3.17;;;15.70;99.90;;;;;;4956425;29;20175;-85
2023/08/01 00:12:55;;;;;;;9.73;4.00;;;15.60;99.90;;;;;;4956208;29;20198;-85
2023/08/01 00:15:21;;;;;;;7.97;3.38;;;15.60;99.90;;;;;;4939955;29;20175;-85
2023/08/01 00:17:47;;;;;;;6.88;3.40;;;17.40;99.90;;;;;;4957439;29;20179;-84
2023/08/01 00:20:13;;;;;;;6.28;3.83;;;15.60;99.90;;;;;;4957329;29;20254;-85
2023/08/01 00:22:38;;;;;;;6.53;3.97;;;15.60;99.90;;;;;;4957386;29;20214;-84
2023/08/01 00:25:04;;;;;;;6.60;3.70;;;15.60;99.90;;;;;;4957180;29;20194;-85
2023/08/01 00:27:32;;;;;;;5.13;3.75;;;15.60;99.90;;;;;;4956063;29;20191;-85
2023/08/01 00:29:57;;;;;;;5.45;3.65;;;15.60;99.90;;;;;;4940245;29;20242;-89
2023/08/01 00:32:23;;;;;;;9.35;4.35;;;15.50;99.90;;;;;;4955837;29;20195;-86
2023/08/01 00:34:51;;;;;;;5.35;3.20;;;15.50;99.90;;;;;;4940145;29;20186;-86
2023/08/01 00:37:17;;;;;;;4.75;3.67;;;15.50;99.90;;;;;;4957036;29;20540;-86
2023/08/01 00:39:42;;;;;;;6.60;3.20;;;15.60;99.90;;;;;;4956998;29;20186;-86
2023/08/01 00:42:08;;;;;;;10.60;3.38;;;15.60;99.90;;;;;;4939156;29;20215;-86
2023/08/01 00:44:33;;;;;;;6.43;3.67;;;15.50;99.90;;;;;;4956158;29;20191;-85
2023/08/01 00:46:59;;;;;;;4.75;3.20;;;15.50;99.90;;;;;;4971492;28;20595;-85
2023/08/01 00:49:25;;;;;;;7.15;3.67;;;15.50;99.90;;;;;;4956462;29;20180;-85
2023/08/01 00:51:51;;;;;;;5.82;3.28;;;15.50;99.90;;;;;;4955626;29;20624;-85
2023/08/01 00:54:16;;;;;;;8.10;4.03;;;15.50;99.90;;;;;;4955400;29;20180;-85
2023/08/01 00:56:43;;;;;;;4.18;3.20;;;15.50;99.90;;;;;;4939527;29;20624;-86
2023/08/01 00:59:08;;;;;;;5.07;3.42;;;15.50;99.90;;;;;;4955113;29;20183;-85
2023/08/01 01:01:34;;;;;;;5.50;3.17;;;15.50;99.90;;;;;;4955390;29;20241;-85
2023/08/01 01:04:00;;;;;;;5.75;3.13;;;15.40;99.90;;;;;;4955411;29;20672;-85
2023/08/01 01:06:32;;;;;;;6.32;3.58;;;15.40;99.90;;;;;;4939272;29;20675;-85
2023/08/01 01:08:57;;;;;;;6.25;3.33;;;15.30;99.90;;;;;;4955395;29;20245;-85
2023/08/01 01:11:23;;;;;;;5.30;3.53;;;15.30;99.90;;;;;;4955018;29;20652;-86
2023/08/01 01:13:48;;;;;;;7.95;4.22;;;15.30;99.90;;;;;;4939381;29;20179;-85
2023/08/01 01:16:14;;;;;;;7.03;3.08;;;15.30;99.90;;;;;;4938742;29;20584;-85
2023/08/01 01:18:41;;;;;;;5.50;3.20;;;15.30;99.90;;;;;;4954813;28;20543;-85
2023/08/01 01:21:06;;;;;;;5.03;3.22;;;15.40;99.90;;;;;;4938565;29;20550;-86
2023/08/01 01:23:33;;;;;;;6.93;3.53;;;15.50;99.90;;;;;;4954971;29;20183;-86
2023/08/01 01:25:59;;;;;;;4.50;3.00;;;15.30;99.90;;;;;;4955841;29;20767;-85
2023/08/01 01:28:26;;;;;;;6.00;3.42;;;15.20;99.90;;;;;;4956132;29;20437;-85
2023/08/01 01:30:53;;;;;;;10.90;3.50;;;15.20;99.90;;;;;;4956137;29;20187;-85
2023/08/01 01:33:19;;;;;;;6.50;3.40;;;15.20;99.90;;;;;;4955879;29;20175;-86
2023/08/01 01:35:44;;;;;;;6.85;4.13;;;15.10;99.90;;;;;;4955900;29;20179;-86
2023/08/01 01:38:11;;;;;;;5.25;3.40;;;15.10;99.90;;;;;;4955456;29;20182;-86
2023/08/01 01:40:37;;;;;;;7.57;3.72;;;15.10;99.90;;;;;;4931283;29;20273;-87
2023/08/01 01:43:03;;;;;;;5.10;3.95;;;15.20;99.90;;;;;;4954408;29;20302;-86
2023/08/01 01:45:28;;;;;;;8.02;4.05;;;15.20;99.90;;;;;;4955655;29;20223;-86
2023/08/01 01:47:54;;;;;;;4.18;3.00;;;15.10;99.90;;;;;;4954841;29;20171;-85
2023/08/01 01:50:20;;;;;;;8.32;4.00;;;15.10;99.90;;;;;;4954250;29;20246;-86
2023/08/01 01:52:45;;;;;;;5.35;3.30;;;15.00;99.90;;;;;;4955897;29;20546;-85
2023/08/01 01:55:11;;;;;;;5.50;3.80;;;15.00;99.90;;;;;;4954918;29;20600;-85
2023/08/01 01:57:37;;;;;;;6.68;3.38;;;15.00;99.90;;;;;;4938506;29;20183;-85
2023/08/01 02:00:04;;;;;;;6.15;4.55;;;15.10;99.90;;;;;;4955840;29;20700;-85
2023/08/01 02:02:30;;;;;;;4.57;2.97;;;15.10;99.90;;;;;;4955220;29;20325;-85
2023/08/01 02:04:55;;;;;;;4.97;3.40;;;15.20;99.90;;;;;;4922824;29;20301;-86
2023/08/01 02:07:21;;;;;;;5.75;3.80;;;15.30;99.90;;;;;;4954062;29;20182;-85
2023/08/01 02:09:47;;;;;;;5.15;3.47;;;15.20;99.90;;;;;;4938183;29;20188;-86
2023/08/01 02:12:14;;;;;;;5.47;3.58;;;15.10;99.90;;;;;;4953998;29;20183;-86
2023/08/01 02:14:40;;;;;;;4.22;3.30;;;15.00;99.90;;;;;;4954078;29;20183;-86
2023/08/01 02:17:07;;;;;;;5.80;3.38;;;14.90;99.90;;;;;;4954105;29;20179;-85
2023/08/01 02:19:33;;;;;;;7.07;2.90;;;15.00;99.90;;;;;;4969814;28;20265;-86
2023/08/01 02:21:58;;;;;;;5.57;3.38;;;14.90;99.90;;;;;;4954874;29;20222;-86
2023/08/01 02:24:24;;;;;;;5.28;3.75;;;14.90;99.90;;;;;;4922330;29;20191;-86
2023/08/01 02:26:50;;;;;;;6.03;3.55;;;14.90;99.90;;;;;;4953937;29;20632;-85
2023/08/01 02:29:16;;;;;;;7.72;3.40;;;14.90;99.90;;;;;;4955286;29;20185;-85
2023/08/01 02:31:42;;;;;;;9.82;3.53;;;14.90;99.90;;;;;;4921584;29;20277;-84
2023/08/01 02:34:07;;;;;;;5.70;3.72;;;14.90;99.90;;;;;;4953962;29;20701;-84
2023/08/01 02:36:33;;;;;;;7.03;3.95;;;14.80;99.90;;;;;;4954867;29;20298;-84
2023/08/01 02:38:59;;;;;;;5.43;3.75;;;14.80;99.90;;;;;;4953968;28;20226;-85
2023/08/01 02:41:24;;;;;;;5.13;3.38;;;14.70;99.90;;;;;;4953713;29;20213;-85
2023/08/01 02:43:50;;;;;;;4.20;3.15;;;14.70;99.90;;;;;;4954264;29;20250;-84
2023/08/01 02:46:15;;;;;;;5.10;3.67;;;14.70;99.90;;;;;;4921941;29;20648;-85
2023/08/01 02:48:41;;;;;;;8.05;3.90;;;14.70;99.90;;;;;;4938344;29;20187;-84
2023/08/01 02:51:09;;;;;;;4.88;3.75;;;14.70;99.90;;;;;;4954967;28;20235;-84
2023/08/01 02:53:35;;;;;;;5.97;3.78;;;14.70;99.90;;;;;;4953528;29;20226;-85
2023/08/01 02:56:01;;;;;;;7.47;3.67;;;14.70;99.90;;;;;;4953969;29;20215;-84
2023/08/01 02:58:27;;;;;;;5.88;3.67;;;14.80;99.90;;;;;;4955557;29;20692;-84
2023/08/01 03:00:52;;;;;;;8.52;3.85;;;14.70;99.90;;;;;;4958915;29;20207;-85
2023/08/01 03:03:18;;;;;;;10.13;3.95;;;14.60;99.90;;;;;;4978163;28;20222;-87
2023/08/01 03:05:43;;;;;;;5.97;3.92;;;14.80;99.90;;;;;;4970458;28;20600;-85
2023/08/01 03:08:09;;;;;;;7.50;4.35;;;14.80;99.90;;;;;;4937277;29;20183;-86
2023/08/01 03:10:35;;;;;;;6.10;3.40;;;14.80;99.90;;;;;;4953229;28;20254;-86
2023/08/01 03:13:00;;;;;;;6.72;4.32;;;14.80;99.90;;;;;;4937428;29;20665;-87
2023/08/01 03:15:27;;;;;;;7.50;4.35;;;14.80;99.90;;;;;;4937629;29;20190;-87
2023/08/01 03:17:52;;;;;;;7.43;4.35;;;14.70;99.90;;;;;;4953928;29;20183;-86
2023/08/01 03:20:18;;;;;;;5.28;3.90;;;14.70;99.90;;;;;;4953971;29;20187;-86
2023/08/01 03:22:44;;;;;;;9.40;4.63;;;14.70;99.90;;;;;;4937160;29;20215;-86
2023/08/01 03:25:09;;;;;;;12.27;5.25;;;14.70;99.90;;;;;;4937429;29;20191;-86
2023/08/01 03:27:35;;;;;;;8.48;4.72;;;14.70;99.90;;;;;;4921736;29;20183;-87
2023/08/01 03:30:02;;;;;;;9.38;4.43;;;14.80;99.90;;;;;;4953494;29;20216;-87
2023/08/01 03:32:28;;;;;;;10.98;5.00;;;14.90;99.90;;;;;;4946196;28;20183;-88
2023/08/01 03:34:53;;;;;;;5.18;4.03;;;14.90;99.90;;;;;;4970170;28;20178;-86
2023/08/01 03:37:19;;;;;;;7.20;4.38;;;14.90;99.90;;;;;;4972497;28;20179;-89
2023/08/01 03:39:45;;;;;;;7.25;4.38;;;14.80;99.90;;;;;;4971907;28;20190;-87
2023/08/01 03:42:10;;;;;;;7.47;4.43;;;14.90;99.90;;;;;;4955487;28;20225;-87
2023/08/01 03:44:36;;;;;;;7.20;4.40;;;14.90;99.90;;;;;;4974429;28;20198;-88
2023/08/01 03:47:02;;;;;;;8.38;4.30;;;15.20;99.90;;;;;;4957834;28;20221;-88
2023/08/01 03:49:28;;;;;;;8.80;4.68;;;15.30;99.90;;;;;;4960610;28;20209;-89
2023/08/01 03:51:53;;;;;;;7.72;5.07;;;15.30;99.90;;;;;;4970298;28;20190;-89
2023/08/01 03:54:19;;;;;;;5.80;4.30;;;15.20;99.90;;;;;;4958279;28;20571;-90
2023/08/01 03:56:45;;;;;;;8.00;4.05;;;15.20;99.90;;;;;;4936780;28;20190;-89
2023/08/01 03:59:13;;;;;;;7.82;4.47;;;15.20;99.90;;;;;;4930551;28;20183;-88
2023/08/01 04:01:40;;;;;;;11.27;4.65;;;15.20;99.90;;;;;;4966596;28;20237;-89
2023/08/01 04:04:09;;;;;;;10.18;4.97;;;15.20;99.90;;;;;;4955190;28;20194;-89
2023/08/01 04:06:35;;;;;;;8.77;4.65;;;15.20;99.90;;;;;;4975916;28;20652;-91
2023/08/01 04:09:01;;;;;;;6.72;4.32;;;15.30;99.90;;;;;;4943794;28;20241;-88
2023/08/01 04:11:27;;;;;;;10.40;4.57;;;15.40;99.90;;;;;;4960587;28;20198;-88
2023/08/01 04:13:53;;;;;;;8.48;4.88;;;15.60;99.90;;;;;;4981094;28;20561;-90
2023/08/01 04:16:19;;;;;;;10.32;4.78;;;15.70;99.90;;;;;;4984146;28;20182;-90
2023/08/01 04:18:44;;;;;;;10.10;4.90;;;15.90;99.90;;;;;;4984246;28;20187;-90
2023/08/01 04:21:13;;;;;;;6.55;4.10;;;16.00;99.90;;;;;;4972703;28;20193;-88
2023/08/01 04:23:39;;;;;;;6.15;4.53;;;16.30;99.90;;;;;;4983806;28;20175;-88
2023/08/01 04:26:06;;;;;;;7.47;4.53;;;16.40;99.90;;;;;;4983088;28;20251;-87
2023/08/01 04:28:32;;;;;;;6.30;4.05;;;16.60;99.90;;;;;;5000413;28;20179;-88
2023/08/01 04:30:57;;;;;;;7.55;4.18;;;16.80;99.90;;;;;;4981640;28;20226;-89
2023/08/01 04:33:25;;;;;;;7.75;4.10;;;16.90;99.90;;;;;;4975297;28;20648;-87
2023/08/01 04:35:51;;;;;;;7.57;4.25;;;17.10;99.90;;;;;;4980650;28;20187;-87
2023/08/01 04:38:17;;;;;;;8.02;4.20;;;17.30;99.90;;;;;;4977599;28;20261;-88
2023/08/01 04:40:43;;;;;;;12.40;4.57;;;17.40;99.90;;;;;;4981844;28;20186;-88
2023/08/01 04:43:09;;;;;;;6.68;4.72;;;17.50;99.90;;;;;;4998155;28;20270;-86
2023/08/01 04:45:35;;;;;;;8.73;4.15;;;17.60;99.90;;;;;;4998308;28;20163;-88
2023/08/01 04:48:01;;;;;;;11.77;4.60;;;17.70;99.90;;;;;;4978820;28;20190;-88
2023/08/01 04:50:27;;;;;;;6.60;3.42;;;17.70;99.90;;;;;;4972582;28;20235;-87
2023/08/01 04:52:53;;;;;;;7.63;3.78;;;;;;;;;;4967378;28;20191;-88
2023/08/01 04:55:19;;;;;;;5.88;3.65;;;18.10;99.90;;;;;;4962573;28;20191;-91
2023/08/01 04:57:48;;;;;;;7.65;3.20;;;18.20;99.90;;;;;;4951071;28;20768;-88
2023/08/01 05:00:14;;;;;;;7.90;3.78;;;18.50;99.90;;;;;;4956551;29;20183;-92
2023/08/01 05:02:40;;;;;;;8.73;3.78;;;18.40;99.90;;;;;;4941516;29;20581;-89
2023/08/01 05:05:06;;;;;;;10.15;3.97;;;18.30;99.90;;;;;;4940600;29;20187;-87
2023/08/01 05:07:34;;;;;;;8.55;3.55;;;18.40;99.90;;;;;;4940677;29;20183;-88
2023/08/01 05:10:00;;;;;;;7.63;3.35;;;18.70;99.90;;;;;;4959222;29;20218;-87
2023/08/01 05:12:26;;;;;;;9.00;3.67;;;;;;;;;;4940977;29;20636;-90
2023/08/01 05:14:52;;;;;;;6.15;3.53;;;18.60;99.90;;;;;;4942404;29;20250;-87
2023/08/01 05:17:17;;;;;;;7.28;3.55;;;18.60;99.90;;;;;;4940693;29;20636;-89
2023/08/01 05:19:43;;;;;;;5.75;3.70;;;;;;;;;;4940508;29;20241;-89
2023/08/01 05:22:09;;;;;;;4.65;3.20;;;;;;;;;;4957334;29;20675;-90
2023/08/01 05:24:35;;;;;;;6.38;3.88;;;;;;;;;;4940002;29;20242;-88
2023/08/01 05:27:01;;;;;;;4.88;3.15;;;19.10;99.90;;;;;;4958304;29;20218;-87
2023/08/01 05:29:28;;;;;;;4.53;2.85;;;19.20;99.90;;;;;;4941191;29;20180;-88
2023/08/01 05:31:53;;;;;;;3.72;2.85;;;19.40;99.90;;;;;;4925446;29;20191;-88
2023/08/01 05:34:24;;;;;;;4.57;2.40;;;19.50;99.90;;;;;;4960281;29;20186;-87
2023/08/01 05:36:50;;;;;;;5.75;3.17;;;19.70;99.90;;;;;;4959800;29;20171;-89
2023/08/01 05:39:16;;;;;;;10.00;3.78;;;19.90;99.90;;;;;;4944372;29;20697;-89
2023/08/01 05:41:43;;;;;;;7.95;3.42;;;20.00;99.90;;;;;;4940976;29;20230;-88
2023/08/01 05:44:09;;;;;;;9.00;3.33;;;20.20;99.90;;;;;;4940183;29;20254;-89
2023/08/01 05:46:35;;;;;;;5.40;3.67;;;20.30;99.90;;;;;;4908368;29;20195;-89
2023/08/01 05:49:01;;;;;;;5.82;3.53;;;20.50;99.90;;;;;;4924207;29;20189;-88
2023/08/01 05:51:46;;;;;;;5.47;3.58;;;20.70;99.90;;;;;;4939791;28;20689;-88
2023/08/01 05:54:12;;;;;;;5.68;3.88;;;20.80;99.90;;;;;;4923562;29;20190;-87
2023/08/01 05:56:37;;;;;;;3.55;2.78;;;20.90;99.90;;;;;;4923329;29;20215;-88
2023/08/01 05:59:06;;;;;;;6.05;2.97;;;21.10;99.90;;;;;;4956528;29;20183;-87
2023/08/01 06:04:56;;;;;;;4.68;3.00;;;21.30;99.90;;;;;;4956391;29;20175;-87
2023/08/01 06:07:22;;;;;;;5.25;3.25;;;21.50;99.90;;;;;;4938792;29;20238;-87
2023/08/01 06:09:51;;;;;;;4.22;3.05;;;21.60;99.90;;;;;;4923172;29;20393;-88
2023/08/01 06:12:25;;;;;;;4.80;2.72;;;21.70;99.90;;;;;;4939019;29;20700;-87
2023/08/01 06:18:12;;;;;;;4.72;2.17;;;21.90;99.90;;;;;;4955737;29;20178;-88
2023/08/01 06:20:39;;;;;;;4.13;2.60;;;21.90;99.90;;;;;;4938692;29;20304;-87
2023/08/01 06:23:05;;;;;;;3.65;2.22;;;22.00;99.90;;;;;;4956092;29;20203;-86
2023/08/01 06:25:30;;;;;;;3.17;2.40;;;19.70;99.90;;;;;;4923506;29;20290;-87
2023/08/01 06:27:56;;;;;;;3.78;2.35;;;22.10;99.90;;;;;;4922937;29;20184;-88
2023/08/01 06:30:27;;;;;;;5.93;2.28;;;22.10;99.90;;;;;;4923632;29;20612;-88
2023/08/01 06:36:17;;;;;;;5.90;2.10;;;22.40;99.90;;;;;;4956505;29;20178;-88
2023/08/01 06:39:20;;;;;;;3.20;2.08;;;22.60;99.90;;;;;;4927803;29;20187;-87
2023/08/01 06:41:46;;;;;;;4.93;2.25;;;22.70;99.80;;;;;;4944075;28;20230;-89
2023/08/01 06:44:12;;;;;;;2.58;1.70;;;;;;;;;;4963146;28;20166;-90
2023/08/01 06:46:38;;;;;;;2.50;1.83;;;;;;;;;;4959402;28;20219;-89
2023/08/01 06:49:04;;;;;;;3.78;1.90;;;23.30;97.60;;;;;;4948528;29;20179;-89
2023/08/01 06:51:30;;;;;;;1.65;1.40;;;;;;;;;;4952224;28;20306;-91
2023/08/01 06:53:55;;;;;;;3.03;1.98;;;23.60;94.60;;;;;;4953158;29;20214;-90
2023/08/01 06:56:22;;;;;;;2.28;1.52;;;23.40;96.90;;;;;;4950603;29;20183;-90
2023/08/01 06:58:52;;;;;;;2.95;1.58;;;24.20;96.00;;;;;;4944432;29;20195;-86
2023/08/01 07:01:19;;;;;;;5.50;2.00;;;23.00;96.50;;;;;;4945372;29;20238;-89
2023/08/01 07:03:47;;;;;;;5.72;1.67;;;24.10;97.00;;;;;;4941246;29;20194;-90
2023/08/01 07:06:16;;;;;;;2.42;1.60;;;23.60;92.30;;;;;;4943222;29;20187;-91
2023/08/01 07:08:41;;;;;;;1.95;1.58;;;24.20;94.30;;;;;;4932788;29;20230;-90
2023/08/01 07:11:07;;;;;;;3.38;1.83;;;23.60;93.30;;;;;;4947616;29;20176;-89
2023/08/01 07:13:33;;;;;;;2.85;1.80;;;23.60;92.20;;;;;;4931202;29;20210;-88
2023/08/01 07:15:59;;;;;;;4.03;1.52;;;23.50;93.40;;;;;;4939277;29;20640;-87
2023/08/01 07:18:25;;;;;;;1.55;1.45;;;;;;;;;;4909088;29;20266;-88
2023/08/01 07:21:04;;;;;;;2.05;1.30;;;23.50;91.20;;;;;;4943149;29;20183;-88
2023/08/01 07:23:31;;;;;;;2.08;1.45;;;23.80;91.10;;;;;;4947523;29;20416;-90
2023/08/01 07:25:58;;;;;;;3.13;1.65;;;;;;;;;;4946261;29;20270;-89
2023/08/01 07:28:24;;;;;;;3.97;1.80;;;;;;;;;;4943781;29;20187;-89
2023/08/01 07:31:06;;;;;;;1.50;1.38;;;24.00;88.80;;;;;;4951560;28;20321;-89
2023/08/01 07:33:35;;;;;;;2.03;1.67;;;24.10;89.30;;;;;;4941320;29;20196;-88
2023/08/01 07:36:04;;;;;;;2.88;1.60;;;24.20;91.30;;;;;;4933771;29;20198;-91
2023/08/01 07:38:34;;;;;;;2.35;1.75;;;;;;;;;;4941576;29;20247;-87
2023/08/01 07:41:13;;;;;;;3.35;2.38;;;24.50;87.60;;;;;;4941086;29;20241;-90
2023/08/01 07:43:54;;;;;;;1.73;1.52;;;22.70;89.90;;;;;;4949647;29;20202;-89
2023/08/01 07:46:20;;;;;;;3.80;1.70;;;;;;;;;;4925087;28;20195;-89
2023/08/01 07:48:46;;;;;;;4.53;1.77;;;;;;;;;;4927579;29;20191;-88
2023/08/01 07:51:12;;;;;;;3.03;1.85;;;;;;;;;;4955240;28;20578;-89
2023/08/01 07:53:38;;;;;;;2.08;1.38;;;;;;;;;;4978113;28;20182;-88
2023/08/01 07:56:07;;;;;;;2.63;1.38;;;25.00;83.30;;;;;;4956845;28;20190;-89
2023/08/01 07:58:36;;;;;;;1.40;1.23;;;25.30;80.60;;;;;;4976290;28;20178;-88
2023/08/01 08:01:05;;;;;;;5.75;1.58;;;25.50;83.10;;;;;;4976374;28;20241;-88
2023/08/01 08:03:31;;;;;;;2.22;1.33;;;25.50;82.60;;;;;;4976155;28;20224;-87
2023/08/01 08:06:01;;;;;;;3.50;1.77;;;;;;;;;;4960191;28;20273;-88
2023/08/01 08:08:33;;;;;;;4.68;1.60;;;25.10;81.20;;;;;;4976296;28;20182;-86
2023/08/01 08:10:59;;;;;;;1.60;1.40;;;;;;;;;;4960511;28;20253;-87
2023/08/01 08:13:25;;;;;;;2.42;1.60;;;;;;;;;;4960450;28;20187;-88
2023/08/01 08:15:51;;;;;;;1.65;1.50;;;;;;;;;;4976508;28;20178;-87
2023/08/01 08:18:18;;;;;;;3.47;1.60;;;;;;;;;;4976071;28;20182;-88
2023/08/01 08:20:45;;;;;;;1.95;1.58;;;24.80;82.20;;;;;;4977321;28;20175;-90
2023/08/01 08:23:15;;;;;;;1.45;1.20;;;24.80;83.30;;;;;;4976813;28;20264;-88
2023/08/01 08:25:41;;;;;;;6.45;2.40;;;;;;;;;;4975843;28;20650;-88
2023/08/01 08:28:08;;;;;;;3.13;1.63;;;24.70;83.00;;;;;;4976119;28;20179;-88
2023/08/01 08:30:36;;;;;;;1.70;1.15;;;;;;;;;;4960630;28;20213;-88
2023/08/01 08:33:04;;;;;;;1.73;1.60;;;;;;;;;;4975759;28;20187;-88
2023/08/01 08:35:30;;;;;;;2.55;1.63;;;24.70;85.30;;;;;;4975958;28;20187;-88
2023/08/01 08:37:58;;;;;;;2.83;2.40;;;25.00;88.70;;;;;;4976289;28;20190;-88
2023/08/01 08:40:24;;;;;;;1.40;1.30;;;25.00;89.80;;;;;;4977661;28;20198;-88
2023/08/01 08:42:54;;;;;;;2.20;1.65;;;23.50;87.80;;;;;;4976174;28;20233;-88
2023/08/01 08:45:23;;;;;;;2.08;1.40;;;26.30;90.00;;;;;;4957057;28;20206;-89
2023/08/01 08:47:59;;;;;;;4.18;2.40;;;25.80;82.20;;;;;;4961149;28;20175;-86
2023/08/01 08:50:31;;;;;;;1.50;1.40;;;25.50;82.80;;;;;;4971748;28;20275;-86
2023/08/01 08:52:57;;;;;;;1.88;1.75;;;;;;;;;;4975829;28;20238;-94
2023/08/01 08:55:26;;;;;;;2.00;1.60;;;25.20;83.40;;;;;;4967259;28;20195;-87
2023/08/01 08:57:52;;;;;;;2.05;1.55;;;;;;;;;;4976968;28;20242;-87
2023/08/01 09:00:19;;;;;;;2.67;1.98;;;25.20;84.10;;;;;;4974491;28;20629;-90
2023/08/01 09:02:45;;;;;;;2.15;1.70;;;25.20;88.30;;;;;;4966549;28;20199;-89
2023/08/01 09:05:12;;;;;;;2.13;1.80;;;25.30;89.30;;;;;;4980016;28;20213;-89
2023/08/01 09:07:45;;;;;;;2.47;1.70;;;25.30;88.70;;;;;;4961290;28;20198;-88
2023/08/01 09:10:10;;;;;;;3.40;2.10;;;25.30;87.30;;;;;;4974917;28;20203;-87
2023/08/01 09:12:41;;;;;;;5.68;1.95;;;25.40;88.00;;;;;;4981388;28;20201;-88
2023/08/01 09:15:10;;;;;;;6.38;2.05;;;25.40;88.70;;;;;;4976211;28;20186;-88
2023/08/01 09:17:35;;;;;;;2.78;1.88;;;25.80;89.60;;;;;;4968503;28;20190;-90
2023/08/01 09:20:10;;;;;;;2.80;1.90;;;26.10;88.40;;;;;;4975578;28;20250;-91
2023/08/01 09:22:46;;;;;;;1.67;1.40;;;25.60;86.50;;;;;;4962393;29;20238;-87
2023/08/01 09:25:15;;;;;;;7.72;1.77;;;25.60;83.30;;;;;;4976867;28;20683;-91
2023/08/01 09:27:44;;;;;;;14.88;2.47;;;27.70;85.40;;;;;;4990729;28;20190;-92
2023/08/01 09:30:16;;;;;;;6.05;2.72;;;25.80;86.80;;;;;;4956835;28;20179;-87
2023/08/01 09:32:56;;;;;;;1.88;1.70;;;25.80;83.20;;;;;;4980873;28;20189;-88
2023/08/01 09:35:22;;;;;;;3.13;2.30;;;25.80;84.40;;;;;;4983983;28;20186;-94
2023/08/01 09:37:48;;;;;;;2.42;1.73;;;25.80;83.60;;;;;;4960359;28;20246;-90
2023/08/01 09:40:15;;;;;;;3.28;2.00;;;;;;;;;;4954824;28;20179;-89
2023/08/01 09:42:44;;;;;;;2.05;1.88;;;25.40;83.60;;;;;;4974585;28;20671;-88
2023/08/01 09:45:18;;;;;;;3.60;1.90;;;25.40;87.50;;;;;;4975494;28;20699;-89
2023/08/01 09:47:45;;;;;;;4.05;2.72;;;25.70;85.40;;;;;;4975756;28;20170;-88
2023/08/01 09:50:13;;;;;;;3.00;2.10;;;25.60;83.90;;;;;;4974323;28;20831;-89
2023/08/01 09:52:39;;;;;;;3.15;2.22;;;;;;;;;;4958613;28;20191;-88
2023/08/01 09:55:05;;;;;;;3.72;1.80;;;26.70;83.90;;;;;;4968943;28;20273;-91
2023/08/01 09:57:32;;;;;;;3.20;2.25;;;25.20;83.90;;;;;;4970622;28;20249;-90
2023/08/01 10:00:02;;;;;;;2.63;2.38;;;25.30;87.70;;;;;;4974934;28;20649;-89
2023/08/01 10:02:32;;;;;;;3.72;2.10;;;24.90;86.00;;;;;;4976410;28;20210;-89
2023/08/01 10:05:05;;;;;;;4.35;2.28;;;25.10;87.50;;;;;;4976649;28;20189;-89
2023/08/01 10:07:36;;;;;;;2.88;2.15;;;24.70;86.50;;;;;;4975862;28;20261;-92
2023/08/01 10:10:02;;;;;;;4.35;2.08;;;;;;;;;;4957835;28;20315;-88
2023/08/01 10:12:28;;;;;;;3.10;1.90;;;;;;;;;;4973287;28;20623;-88
2023/08/01 10:14:55;;;;;;;2.40;1.85;;;24.80;89.40;;;;;;4962610;28;20182;-88
2023/08/01 10:17:25;;;;;;;3.88;2.13;;;24.80;89.90;;;;;;4957525;28;20183;-86
2023/08/01 10:19:56;;;;;;;3.17;2.10;;;24.80;90.00;;;;;;4973744;28;20610;-87
2023/08/01 10:22:24;;;;;;;2.42;2.22;;;24.70;89.40;;;;;;4953922;28;20735;-87
2023/08/01 10:24:51;;;;;;;2.75;1.92;;;;;;;;;;4955751;28;20249;-88
2023/08/01 10:27:21;;;;;;;3.05;1.80;;;24.70;90.40;;;;;;4957629;28;20190;-87
2023/08/01 10:30:09;;;;;;;2.63;1.90;;;24.70;90.20;;;;;;4964237;28;20257;-87
2023/08/01 10:32:37;;;;;;;2.78;2.30;;;24.60;90.50;;;;;;4967487;28;20186;-87
2023/08/01 10:35:04;;;;;;;4.55;2.22;;;24.50;90.90;;;;;;4961243;28;20183;-87
2023/08/01 10:37:47;;;;;;;3.25;2.10;;;24.60;91.90;;;;;;4976764;28;20245;-87
2023/08/01 10:40:13;;;;;;;5.93;2.70;;;;;;;;;;4997532;28;20197;-94
2023/08/01 10:42:43;;;;;;;3.03;2.05;;;24.50;91.90;;;;;;4997322;28;20222;-95
2023/08/01 10:45:23;;;;;;;2.30;2.10;;;24.60;92.80;;;;;;4974950;28;20194;-89
2023/08/01 10:47:50;;;;;;;2.30;1.73;;;24.80;93.00;;;;;;4976199;28;20261;-89
2023/08/01 10:50:17;;;;;;;5.13;2.75;;;24.80;92.50;;;;;;4959008;28;20233;-88
2023/08/01 10:52:43;;;;;;;4.85;2.05;;;24.90;92.20;;;;;;4939628;29;20558;-89
2023/08/01 10:55:10;;;;;;;4.93;1.73;;;25.00;91.80;;;;;;4958230;29;20183;-90
2023/08/01 10:57:38;;;;;;;2.75;2.30;;;24.90;91.00;;;;;;4960362;28;20175;-88
2023/08/01 11:00:09;;;;;;;3.38;2.17;;;24.90;91.60;;;;;;4983760;28;20542;-87
2023/08/01 11:02:37;;;;;;;2.15;1.85;;;24.80;91.50;;;;;;4974360;28;20191;-89
2023/08/01 11:05:04;;;;;;;3.50;2.20;;;24.70;91.40;;;;;;4962609;29;20621;-87
2023/08/01 11:07:34;;;;;;;2.80;2.03;;;24.70;91.70;;;;;;4979158;28;20226;-88
2023/08/01 11:10:08;;;;;;;3.47;2.10;;;24.70;92.10;;;;;;4981661;28;20182;-87
2023/08/01 11:12:44;;;;;;;3.60;2.05;;;24.70;92.90;;;;;;4982605;28;20280;-87
2023/08/01 11:15:14;;;;;;;3.25;2.25;;;24.70;93.10;;;;;;4976196;28;20190;-89
2023/08/01 11:17:48;;;;;;;3.22;1.90;;;24.70;90.30;;;;;;4962250;28;20211;-88
2023/08/01 11:20:14;;;;;;;2.88;1.80;;;;;;;;;;4974475;28;20355;-87
2023/08/01 11:23:04;;;;;;;2.95;1.75;;;24.70;91.30;;;;;;4958771;28;20207;-86
2023/08/01 11:25:39;;;;;;;2.70;2.25;;;24.70;90.60;;;;;;4974408;28;20532;-87
2023/08/01 11:28:10;;;;;;;5.22;2.55;;;24.40;89.50;;;;;;4973252;28;20176;-86
2023/08/01 11:30:37;;;;;;;3.65;1.98;;;;;;;;;;4957528;29;20928;-86
2023/08/01 11:33:08;;;;;;;3.95;2.15;;;;;;;;;;4962007;29;20191;-86
2023/08/01 11:35:36;;;;;;;3.28;2.00;;;;;;;;;;4971673;29;20186;-87
2023/08/01 11:38:22;;;;;;;2.45;2.05;;;24.50;91.40;;;;;;4977737;29;20176;-86
2023/08/01 11:40:51;;;;;;;3.45;2.00;;;24.30;92.30;;;;;;4990470;28;20238;-86
2023/08/01 11:43:17;;;;;;;2.30;2.10;;;24.20;93.00;;;;;;4968304;28;20191;-86
2023/08/01 11:45:54;;;;;;;2.10;1.88;;;24.20;92.50;;;;;;4960741;28;20406;-86
2023/08/01 11:48:21;;;;;;;2.60;2.22;;;23.90;92.70;;;;;;4985519;28;20167;-88
2023/08/01 11:50:47;;;;;;;7.55;2.30;;;24.00;93.40;;;;;;4981418;28;20254;-89
2023/08/01 11:53:22;;;;;;;3.28;2.13;;;24.00;93.90;;;;;;5000603;28;20234;-92
2023/08/01 11:55:52;;;;;;;2.85;1.88;;;23.80;93.70;;;;;;5001030;28;20201;-89
2023/08/01 11:58:36;;;;;;;3.50;2.30;;;23.80;94.70;;;;;;4989133;28;20265;-86
2023/08/01 12:01:10;;;;;;;3.80;2.25;;;23.70;95.00;;;;;;4970826;28;20242;-87
2023/08/01 12:03:43;;;;;;;3.08;1.77;;;23.60;94.20;;;;;;4965424;28;20701;-88
2023/08/01 12:06:13;;;;;;;2.53;1.90;;;23.50;93.90;;;;;;4993518;28;20205;-90
2023/08/01 12:08:39;;;;;;;4.72;1.63;;;23.50;93.90;;;;;;4991357;28;20179;-92
2023/08/01 12:11:05;;;;;;;4.97;1.83;;;;;;;;;;4985480;28;20182;-95
2023/08/01 12:13:31;;;;;;;4.22;1.90;;;23.30;95.30;;;;;;4995909;28;20181;-91
2023/08/01 12:15:57;;;;;;;5.35;2.13;;;23.60;96.50;;;;;;4969953;28;20202;-87
2023/08/01 12:18:25;;;;;;;3.08;1.98;;;23.50;95.60;;;;;;4945394;29;20183;-86
2023/08/01 12:20:55;;;;;;;3.92;2.30;;;23.50;97.40;;;;;;4958562;28;20190;-86
2023/08/01 12:23:21;;;;;;;3.03;2.20;;;;;;;;;;4959701;29;20207;-86
2023/08/01 12:25:52;;;;;;;3.42;2.17;;;23.60;96.10;;;;;;4969292;29;20193;-85
2023/08/01 12:28:17;;;;;;;2.55;2.00;;;23.60;95.90;;;;;;4962554;29;20215;-91
2023/08/01 12:30:44;;;;;;;2.30;1.75;;;23.70;97.20;;;;;;4953219;29;20187;-86
2023/08/01 12:33:10;;;;;;;1.77;1.63;;;23.80;95.70;;;;;;4972775;28;20192;-88
2023/08/01 12:35:40;;;;;;;3.55;1.83;;;23.80;94.70;;;;;;4975144;28;20179;-88
2023/08/01 12:38:09;;;;;;;2.42;1.73;;;23.90;94.40;;;;;;4977084;28;20206;-87
2023/08/01 12:40:34;;;;;;;2.80;1.95;;;23.90;93.10;;;;;;4973192;28;20170;-88
2023/08/01 12:43:01;;;;;;;1.90;1.35;;;;;;;;;;4959769;28;20221;-87
2023/08/01 12:45:26;;;;;;;5.00;2.00;;;24.00;92.30;;;;;;4959061;28;20333;-86
2023/08/01 12:47:52;;;;;;;2.75;2.10;;;24.00;92.80;;;;;;4964334;28;20265;-87
2023/08/01 12:50:17;;;;;;;2.55;1.90;;;24.10;92.40;;;;;;4974762;28;20270;-90
2023/08/01 12:52:43;;;;;;;2.05;1.50;;;24.10;91.90;;;;;;4976894;28;20197;-87
2023/08/01 12:55:09;;;;;;;2.65;2.10;;;24.10;91.80;;;;;;4960043;28;20185;-88
2023/08/01 12:57:34;;;;;;;3.60;1.90;;;24.20;92.50;;;;;;4967729;28;20671;-87
2023/08/01 13:00:00;;;;;;;2.83;2.00;;;25.30;91.80;;;;;;4958811;28;20730;-86
2023/08/01 13:02:29;;;;;;;2.83;1.80;;;24.20;90.90;;;;;;4973718;28;20209;-88
2023/08/01 13:04:55;;;;;;;2.75;1.98;;;;;;;;;;4967827;28;20199;-86
2023/08/01 13:07:21;;;;;;;6.03;2.72;;;;;;;;;;4974357;28;20273;-89
2023/08/01 13:09:47;;;;;;;2.50;1.63;;;24.20;91.30;;;;;;4958409;28;20209;-87
2023/08/01 13:12:13;;;;;;;2.33;1.80;;;;;;;;;;4955709;28;20636;-87